sensor_id;sensor_type;location;lat;lon;timestamp;P1;durP1;ratioP1;P2;durP2;ratioP2
46757;SDS011;32509;47.750;-3.396;2022-11-23T00:00:23;0.90;;;0.70;;
46757;SDS011;32509;47.750;-3.396;2022-11-23T00:02:52;0.98;;;0.70;;
46757;SDS011;32509;47.750;-3.396;2022-11-23T00:05:19;1.65;;;0.80;;
46757;SDS011;32509;47.750;-3.396;2022-11-23T00:07:44;1.23;;;0.70;;
46757;SDS011;32509;47.750;-3.396;2022-11-23T00:10:10;1.00;;;0.60;;
46757;SDS011;32509;47.750;-3.396;2022-11-23T00:12:36;1.25;;;0.88;;
46757;SDS011;32509;47.750;-3.396;2022-11-23T00:15:02;0.80;;;0.60;;
46757;SDS011;32509;47.750;-3.396;2022-11-23T00:17:29;1.23;;;1.00;;
46757;SDS011;32509;47.750;-3.396;2022-11-23T00:19:55;3.15;;;0.88;;
46757;SDS011;32509;47.750;-3.396;2022-11-23T00:22:20;3.38;;;0.85;;
46757;SDS011;32509;47.750;-3.396;2022-11-23T00:24:46;0.98;;;0.60;;
46757;SDS011;32509;47.750;-3.396;2022-11-23T00:27:12;3.10;;;0.57;;
46757;SDS011;32509;47.750;-3.396;2022-11-23T00:29:38;2.35;;;0.50;;
46757;SDS011;32509;47.750;-3.396;2022-11-23T00:32:03;1.65;;;0.65;;
46757;SDS011;32509;47.750;-3.396;2022-11-23T00:34:29;0.93;;;0.40;;
46757;SDS011;32509;47.750;-3.396;2022-11-23T00:36:55;1.60;;;0.68;;
46757;SDS011;32509;47.750;-3.396;2022-11-23T00:39:21;1.70;;;0.88;;
46757;SDS011;32509;47.750;-3.396;2022-11-23T00:41:47;0.60;;;0.60;;
46757;SDS011;32509;47.750;-3.396;2022-11-23T00:44:12;1.52;;;0.57;;
46757;SDS011;32509;47.750;-3.396;2022-11-23T00:46:38;1.20;;;0.75;;
46757;SDS011;32509;47.750;-3.396;2022-11-23T00:49:04;1.90;;;0.60;;
46757;SDS011;32509;47.750;-3.396;2022-11-23T00:51:32;3.10;;;1.35;;
46757;SDS011;32509;47.750;-3.396;2022-11-23T00:54:00;0.70;;;0.55;;
46757;SDS011;32509;47.750;-3.396;2022-11-23T00:56:28;1.00;;;0.65;;
46757;SDS011;32509;47.750;-3.396;2022-11-23T00:58:55;0.88;;;0.40;;
46757;SDS011;32509;47.750;-3.396;2022-11-23T01:01:23;1.15;;;0.63;;
46757;SDS011;32509;47.750;-3.396;2022-11-23T01:03:55;1.17;;;0.40;;
46757;SDS011;32509;47.750;-3.396;2022-11-23T01:06:26;0.57;;;0.40;;
46757;SDS011;32509;47.750;-3.396;2022-11-23T01:08:54;2.88;;;0.43;;
46757;SDS011;32509;47.750;-3.396;2022-11-23T01:11:23;0.82;;;0.40;;
46757;SDS011;32509;47.750;-3.396;2022-11-23T01:13:50;1.38;;;0.60;;
46757;SDS011;32509;47.750;-3.396;2022-11-23T01:16:26;1.15;;;0.60;;
46757;SDS011;32509;47.750;-3.396;2022-11-23T01:18:57;0.70;;;0.60;;
46757;SDS011;32509;47.750;-3.396;2022-11-23T01:21:25;2.08;;;0.40;;
46757;SDS011;32509;47.750;-3.396;2022-11-23T01:23:52;1.45;;;0.68;;
46757;SDS011;32509;47.750;-3.396;2022-11-23T01:26:19;1.25;;;0.50;;
46757;SDS011;32509;47.750;-3.396;2022-11-23T01:28:44;0.98;;;0.52;;
46757;SDS011;32509;47.750;-3.396;2022-11-23T01:31:11;6.88;;;2.30;;
46757;SDS011;32509;47.750;-3.396;2022-11-23T01:33:41;0.70;;;0.70;;
46757;SDS011;32509;47.750;-3.396;2022-11-23T01:38:42;1.15;;;0.75;;
46757;SDS011;32509;47.750;-3.396;2022-11-23T01:41:10;1.65;;;0.60;;
46757;SDS011;32509;47.750;-3.396;2022-11-23T01:43:37;2.63;;;0.80;;
46757;SDS011;32509;47.750;-3.396;2022-11-23T01:46:04;4.38;;;1.27;;
46757;SDS011;32509;47.750;-3.396;2022-11-23T01:49:12;0.70;;;0.57;;
46757;SDS011;32509;47.750;-3.396;2022-11-23T01:51:22;2.55;;;0.90;;
46757;SDS011;32509;47.750;-3.396;2022-11-23T01:53:51;3.15;;;0.88;;
46757;SDS011;32509;47.750;-3.396;2022-11-23T01:56:25;3.85;;;1.02;;
46757;SDS011;32509;47.750;-3.396;2022-11-23T01:58:55;1.35;;;0.82;;
46757;SDS011;32509;47.750;-3.396;2022-11-23T02:01:24;3.63;;;1.17;;
46757;SDS011;32509;47.750;-3.396;2022-11-23T02:03:50;2.95;;;1.08;;
46757;SDS011;32509;47.750;-3.396;2022-11-23T02:06:19;3.53;;;1.23;;
46757;SDS011;32509;47.750;-3.396;2022-11-23T02:08:47;7.35;;;1.80;;
46757;SDS011;32509;47.750;-3.396;2022-11-23T02:11:13;3.33;;;1.85;;
46757;SDS011;32509;47.750;-3.396;2022-11-23T02:13:40;2.92;;;1.40;;
46757;SDS011;32509;47.750;-3.396;2022-11-23T02:16:08;6.28;;;1.75;;
46757;SDS011;32509;47.750;-3.396;2022-11-23T02:18:34;7.10;;;1.90;;
46757;SDS011;32509;47.750;-3.396;2022-11-23T02:21:01;7.88;;;2.00;;
46757;SDS011;32509;47.750;-3.396;2022-11-23T02:23:31;9.23;;;2.58;;
46757;SDS011;32509;47.750;-3.396;2022-11-23T02:26:27;6.75;;;2.25;;
46757;SDS011;32509;47.750;-3.396;2022-11-23T02:31:26;12.23;;;3.72;;
46757;SDS011;32509;47.750;-3.396;2022-11-23T02:33:53;9.95;;;2.80;;
46757;SDS011;32509;47.750;-3.396;2022-11-23T02:36:35;14.10;;;3.47;;
46757;SDS011;32509;47.750;-3.396;2022-11-23T02:39:11;16.13;;;3.70;;
46757;SDS011;32509;47.750;-3.396;2022-11-23T02:42:09;21.92;;;5.50;;
46757;SDS011;32509;47.750;-3.396;2022-11-23T02:44:41;14.85;;;4.90;;
46757;SDS011;32509;47.750;-3.396;2022-11-23T02:47:12;23.00;;;5.72;;
46757;SDS011;32509;47.750;-3.396;2022-11-23T02:49:39;19.38;;;5.40;;
46757;SDS011;32509;47.750;-3.396;2022-11-23T02:52:05;24.45;;;5.85;;
46757;SDS011;32509;47.750;-3.396;2022-11-23T02:54:32;19.33;;;5.63;;
46757;SDS011;32509;47.750;-3.396;2022-11-23T02:56:57;21.83;;;6.07;;
46757;SDS011;32509;47.750;-3.396;2022-11-23T02:59:23;25.17;;;6.30;;
46757;SDS011;32509;47.750;-3.396;2022-11-23T03:01:49;21.52;;;6.53;;
46757;SDS011;32509;47.750;-3.396;2022-11-23T03:04:15;32.72;;;7.32;;
46757;SDS011;32509;47.750;-3.396;2022-11-23T03:06:41;28.60;;;8.25;;
46757;SDS011;32509;47.750;-3.396;2022-11-23T03:09:07;40.10;;;9.70;;
46757;SDS011;32509;47.750;-3.396;2022-11-23T03:11:33;42.28;;;9.27;;
46757;SDS011;32509;47.750;-3.396;2022-11-23T03:13:58;32.63;;;8.30;;
46757;SDS011;32509;47.750;-3.396;2022-11-23T03:16:24;32.17;;;8.02;;
46757;SDS011;32509;47.750;-3.396;2022-11-23T03:18:50;41.08;;;10.30;;
46757;SDS011;32509;47.750;-3.396;2022-11-23T03:21:16;32.33;;;8.60;;
46757;SDS011;32509;47.750;-3.396;2022-11-23T03:23:42;31.75;;;9.25;;
46757;SDS011;32509;47.750;-3.396;2022-11-23T03:26:08;41.17;;;10.50;;
46757;SDS011;32509;47.750;-3.396;2022-11-23T03:28:33;35.88;;;9.52;;
46757;SDS011;32509;47.750;-3.396;2022-11-23T03:30:59;38.45;;;8.43;;
46757;SDS011;32509;47.750;-3.396;2022-11-23T03:33:25;48.13;;;10.45;;
46757;SDS011;32509;47.750;-3.396;2022-11-23T03:35:51;45.80;;;9.88;;
46757;SDS011;32509;47.750;-3.396;2022-11-23T03:38:16;40.92;;;10.32;;
46757;SDS011;32509;47.750;-3.396;2022-11-23T03:40:43;35.00;;;11.10;;
46757;SDS011;32509;47.750;-3.396;2022-11-23T03:43:12;37.42;;;11.45;;
46757;SDS011;32509;47.750;-3.396;2022-11-23T03:45:40;40.63;;;10.65;;
46757;SDS011;32509;47.750;-3.396;2022-11-23T03:48:06;44.83;;;12.68;;
46757;SDS011;32509;47.750;-3.396;2022-11-23T03:50:32;42.65;;;10.68;;
46757;SDS011;32509;47.750;-3.396;2022-11-23T03:52:58;42.20;;;12.02;;
46757;SDS011;32509;47.750;-3.396;2022-11-23T03:55:24;40.28;;;10.52;;
46757;SDS011;32509;47.750;-3.396;2022-11-23T03:57:51;30.83;;;9.00;;
46757;SDS011;32509;47.750;-3.396;2022-11-23T04:00:19;41.58;;;11.23;;
46757;SDS011;32509;47.750;-3.396;2022-11-23T04:02:45;42.28;;;11.00;;
46757;SDS011;32509;47.750;-3.396;2022-11-23T04:05:11;36.53;;;9.43;;
46757;SDS011;32509;47.750;-3.396;2022-11-23T04:07:37;35.05;;;10.57;;
46757;SDS011;32509;47.750;-3.396;2022-11-23T04:10:03;31.65;;;8.32;;
46757;SDS011;32509;47.750;-3.396;2022-11-23T04:12:29;33.63;;;8.98;;
46757;SDS011;32509;47.750;-3.396;2022-11-23T04:14:55;40.30;;;10.05;;
46757;SDS011;32509;47.750;-3.396;2022-11-23T04:17:21;33.90;;;9.95;;
46757;SDS011;32509;47.750;-3.396;2022-11-23T04:19:47;40.47;;;9.80;;
46757;SDS011;32509;47.750;-3.396;2022-11-23T04:22:12;37.20;;;8.38;;
46757;SDS011;32509;47.750;-3.396;2022-11-23T04:24:38;25.90;;;7.97;;
46757;SDS011;32509;47.750;-3.396;2022-11-23T04:27:04;31.67;;;8.10;;
46757;SDS011;32509;47.750;-3.396;2022-11-23T04:29:29;33.20;;;8.32;;
46757;SDS011;32509;47.750;-3.396;2022-11-23T04:31:55;42.75;;;11.38;;
46757;SDS011;32509;47.750;-3.396;2022-11-23T04:34:21;30.90;;;8.75;;
46757;SDS011;32509;47.750;-3.396;2022-11-23T04:36:46;27.42;;;7.35;;
46757;SDS011;32509;47.750;-3.396;2022-11-23T04:39:12;21.95;;;5.68;;
46757;SDS011;32509;47.750;-3.396;2022-11-23T04:41:38;36.38;;;8.52;;
46757;SDS011;32509;47.750;-3.396;2022-11-23T04:44:04;24.90;;;6.38;;
46757;SDS011;32509;47.750;-3.396;2022-11-23T04:46:30;23.70;;;6.43;;
46757;SDS011;32509;47.750;-3.396;2022-11-23T04:48:56;19.20;;;5.70;;
46757;SDS011;32509;47.750;-3.396;2022-11-23T04:51:22;23.63;;;5.88;;
46757;SDS011;32509;47.750;-3.396;2022-11-23T04:53:48;18.00;;;5.57;;
46757;SDS011;32509;47.750;-3.396;2022-11-23T04:56:13;19.63;;;5.05;;
46757;SDS011;32509;47.750;-3.396;2022-11-23T04:58:39;19.38;;;5.10;;
46757;SDS011;32509;47.750;-3.396;2022-11-23T05:01:05;20.33;;;5.20;;
46757;SDS011;32509;47.750;-3.396;2022-11-23T05:03:31;26.58;;;6.57;;
46757;SDS011;32509;47.750;-3.396;2022-11-23T05:06:00;16.83;;;4.88;;
46757;SDS011;32509;47.750;-3.396;2022-11-23T05:08:27;22.67;;;6.63;;
46757;SDS011;32509;47.750;-3.396;2022-11-23T05:10:54;21.33;;;4.75;;
46757;SDS011;32509;47.750;-3.396;2022-11-23T05:13:19;16.00;;;5.07;;
46757;SDS011;32509;47.750;-3.396;2022-11-23T05:15:45;18.13;;;4.72;;
46757;SDS011;32509;47.750;-3.396;2022-11-23T05:18:11;14.23;;;4.00;;
46757;SDS011;32509;47.750;-3.396;2022-11-23T05:20:37;15.60;;;5.13;;
46757;SDS011;32509;47.750;-3.396;2022-11-23T05:23:03;14.00;;;3.55;;
46757;SDS011;32509;47.750;-3.396;2022-11-23T05:25:29;10.77;;;2.60;;
46757;SDS011;32509;47.750;-3.396;2022-11-23T05:27:54;12.35;;;3.15;;
46757;SDS011;32509;47.750;-3.396;2022-11-23T05:30:20;11.65;;;3.92;;
46757;SDS011;32509;47.750;-3.396;2022-11-23T05:32:46;12.88;;;3.53;;
46757;SDS011;32509;47.750;-3.396;2022-11-23T05:35:12;24.73;;;4.55;;
46757;SDS011;32509;47.750;-3.396;2022-11-23T05:37:39;14.48;;;3.58;;
46757;SDS011;32509;47.750;-3.396;2022-11-23T05:40:06;12.80;;;3.42;;
46757;SDS011;32509;47.750;-3.396;2022-11-23T05:42:32;12.77;;;2.78;;
46757;SDS011;32509;47.750;-3.396;2022-11-23T05:44:58;12.75;;;3.28;;
46757;SDS011;32509;47.750;-3.396;2022-11-23T05:47:24;12.38;;;3.15;;
46757;SDS011;32509;47.750;-3.396;2022-11-23T05:49:49;9.32;;;3.03;;
46757;SDS011;32509;47.750;-3.396;2022-11-23T05:52:16;13.15;;;3.50;;
46757;SDS011;32509;47.750;-3.396;2022-11-23T05:54:42;16.50;;;3.63;;
46757;SDS011;32509;47.750;-3.396;2022-11-23T05:57:08;15.57;;;4.35;;
46757;SDS011;32509;47.750;-3.396;2022-11-23T05:59:33;12.18;;;3.33;;
46757;SDS011;32509;47.750;-3.396;2022-11-23T06:01:59;23.55;;;8.27;;
46757;SDS011;32509;47.750;-3.396;2022-11-23T06:04:25;24.08;;;13.20;;
46757;SDS011;32509;47.750;-3.396;2022-11-23T06:06:51;16.58;;;6.20;;
46757;SDS011;32509;47.750;-3.396;2022-11-23T06:09:23;13.82;;;4.32;;
46757;SDS011;32509;47.750;-3.396;2022-11-23T06:11:48;17.23;;;4.93;;
46757;SDS011;32509;47.750;-3.396;2022-11-23T06:14:14;18.33;;;6.18;;
46757;SDS011;32509;47.750;-3.396;2022-11-23T06:16:41;17.35;;;4.50;;
46757;SDS011;32509;47.750;-3.396;2022-11-23T06:19:06;16.88;;;4.85;;
46757;SDS011;32509;47.750;-3.396;2022-11-23T06:21:32;16.65;;;4.78;;
46757;SDS011;32509;47.750;-3.396;2022-11-23T06:23:58;16.65;;;3.85;;
46757;SDS011;32509;47.750;-3.396;2022-11-23T06:26:24;19.10;;;5.00;;
46757;SDS011;32509;47.750;-3.396;2022-11-23T06:28:49;21.80;;;5.05;;
46757;SDS011;32509;47.750;-3.396;2022-11-23T06:31:15;21.73;;;5.47;;
46757;SDS011;32509;47.750;-3.396;2022-11-23T06:33:41;19.60;;;5.13;;
46757;SDS011;32509;47.750;-3.396;2022-11-23T06:36:08;17.38;;;4.55;;
46757;SDS011;32509;47.750;-3.396;2022-11-23T06:38:35;16.63;;;4.32;;
46757;SDS011;32509;47.750;-3.396;2022-11-23T06:41:01;15.10;;;3.38;;
46757;SDS011;32509;47.750;-3.396;2022-11-23T06:43:28;15.82;;;3.90;;
46757;SDS011;32509;47.750;-3.396;2022-11-23T06:45:54;20.17;;;4.00;;
46757;SDS011;32509;47.750;-3.396;2022-11-23T06:48:20;11.82;;;3.85;;
46757;SDS011;32509;47.750;-3.396;2022-11-23T06:50:46;12.82;;;4.03;;
46757;SDS011;32509;47.750;-3.396;2022-11-23T06:53:12;12.43;;;3.38;;
46757;SDS011;32509;47.750;-3.396;2022-11-23T06:55:38;11.15;;;3.30;;
46757;SDS011;32509;47.750;-3.396;2022-11-23T06:58:04;11.65;;;2.50;;
46757;SDS011;32509;47.750;-3.396;2022-11-23T07:00:30;12.63;;;3.22;;
46757;SDS011;32509;47.750;-3.396;2022-11-23T07:02:57;10.95;;;2.72;;
46757;SDS011;32509;47.750;-3.396;2022-11-23T07:05:24;10.65;;;3.10;;
46757;SDS011;32509;47.750;-3.396;2022-11-23T07:07:51;17.23;;;4.75;;
46757;SDS011;32509;47.750;-3.396;2022-11-23T07:10:17;17.73;;;3.70;;
46757;SDS011;32509;47.750;-3.396;2022-11-23T07:12:43;17.33;;;4.00;;
46757;SDS011;32509;47.750;-3.396;2022-11-23T07:15:09;11.70;;;3.22;;
46757;SDS011;32509;47.750;-3.396;2022-11-23T07:17:39;14.43;;;3.67;;
46757;SDS011;32509;47.750;-3.396;2022-11-23T07:20:09;13.35;;;3.63;;
46757;SDS011;32509;47.750;-3.396;2022-11-23T07:22:36;11.70;;;2.92;;
46757;SDS011;32509;47.750;-3.396;2022-11-23T07:25:02;18.17;;;4.53;;
46757;SDS011;32509;47.750;-3.396;2022-11-23T07:27:29;14.02;;;3.67;;
46757;SDS011;32509;47.750;-3.396;2022-11-23T07:29:55;12.80;;;3.20;;
46757;SDS011;32509;47.750;-3.396;2022-11-23T07:32:20;18.38;;;3.97;;
46757;SDS011;32509;47.750;-3.396;2022-11-23T07:34:46;16.17;;;4.57;;
46757;SDS011;32509;47.750;-3.396;2022-11-23T07:37:12;12.80;;;3.47;;
46757;SDS011;32509;47.750;-3.396;2022-11-23T07:39:37;11.50;;;3.25;;
46757;SDS011;32509;47.750;-3.396;2022-11-23T07:42:03;16.73;;;4.10;;
46757;SDS011;32509;47.750;-3.396;2022-11-23T07:44:29;15.38;;;3.90;;
46757;SDS011;32509;47.750;-3.396;2022-11-23T07:46:55;19.35;;;4.03;;
46757;SDS011;32509;47.750;-3.396;2022-11-23T07:49:21;21.63;;;4.38;;
46757;SDS011;32509;47.750;-3.396;2022-11-23T07:51:46;18.23;;;4.50;;
46757;SDS011;32509;47.750;-3.396;2022-11-23T07:54:12;18.48;;;3.70;;
46757;SDS011;32509;47.750;-3.396;2022-11-23T07:56:38;17.05;;;5.05;;
46757;SDS011;32509;47.750;-3.396;2022-11-23T07:59:03;17.33;;;4.45;;
46757;SDS011;32509;47.750;-3.396;2022-11-23T08:01:29;20.33;;;4.68;;
46757;SDS011;32509;47.750;-3.396;2022-11-23T08:03:58;17.70;;;4.45;;
46757;SDS011;32509;47.750;-3.396;2022-11-23T08:06:23;19.17;;;4.35;;
46757;SDS011;32509;47.750;-3.396;2022-11-23T08:08:49;17.88;;;4.57;;
46757;SDS011;32509;47.750;-3.396;2022-11-23T08:11:15;16.85;;;5.13;;
46757;SDS011;32509;47.750;-3.396;2022-11-23T08:13:44;15.40;;;3.97;;
46757;SDS011;32509;47.750;-3.396;2022-11-23T08:16:10;21.10;;;4.90;;
46757;SDS011;32509;47.750;-3.396;2022-11-23T08:18:36;14.18;;;4.43;;
46757;SDS011;32509;47.750;-3.396;2022-11-23T08:21:02;22.77;;;4.57;;
46757;SDS011;32509;47.750;-3.396;2022-11-23T08:23:28;17.67;;;4.40;;
46757;SDS011;32509;47.750;-3.396;2022-11-23T08:25:54;16.25;;;3.88;;
46757;SDS011;32509;47.750;-3.396;2022-11-23T08:28:20;24.30;;;5.18;;
46757;SDS011;32509;47.750;-3.396;2022-11-23T08:30:46;24.42;;;5.32;;
46757;SDS011;32509;47.750;-3.396;2022-11-23T08:33:13;23.60;;;5.50;;
46757;SDS011;32509;47.750;-3.396;2022-11-23T08:35:39;21.00;;;6.10;;
46757;SDS011;32509;47.750;-3.396;2022-11-23T08:38:06;18.85;;;4.60;;
46757;SDS011;32509;47.750;-3.396;2022-11-23T08:40:33;18.58;;;4.85;;
46757;SDS011;32509;47.750;-3.396;2022-11-23T08:43:01;18.52;;;5.13;;
46757;SDS011;32509;47.750;-3.396;2022-11-23T08:45:27;16.50;;;3.85;;
46757;SDS011;32509;47.750;-3.396;2022-11-23T08:47:53;15.15;;;4.45;;
46757;SDS011;32509;47.750;-3.396;2022-11-23T08:50:23;18.67;;;5.03;;
46757;SDS011;32509;47.750;-3.396;2022-11-23T08:52:53;19.98;;;5.03;;
46757;SDS011;32509;47.750;-3.396;2022-11-23T08:55:23;19.38;;;4.47;;
46757;SDS011;32509;47.750;-3.396;2022-11-23T08:57:53;15.07;;;4.38;;
46757;SDS011;32509;47.750;-3.396;2022-11-23T09:00:19;18.05;;;4.35;;
46757;SDS011;32509;47.750;-3.396;2022-11-23T09:02:45;18.33;;;3.92;;
46757;SDS011;32509;47.750;-3.396;2022-11-23T09:05:11;16.48;;;5.25;;
46757;SDS011;32509;47.750;-3.396;2022-11-23T09:07:37;18.88;;;4.20;;
46757;SDS011;32509;47.750;-3.396;2022-11-23T09:10:03;17.25;;;4.63;;
46757;SDS011;32509;47.750;-3.396;2022-11-23T09:12:29;19.77;;;4.50;;
46757;SDS011;32509;47.750;-3.396;2022-11-23T09:14:55;26.90;;;5.88;;
46757;SDS011;32509;47.750;-3.396;2022-11-23T09:17:21;17.30;;;5.85;;
46757;SDS011;32509;47.750;-3.396;2022-11-23T09:19:47;16.27;;;4.95;;
46757;SDS011;32509;47.750;-3.396;2022-11-23T09:22:14;19.35;;;5.57;;
46757;SDS011;32509;47.750;-3.396;2022-11-23T09:24:40;18.77;;;5.72;;
46757;SDS011;32509;47.750;-3.396;2022-11-23T09:27:05;22.50;;;6.88;;
46757;SDS011;32509;47.750;-3.396;2022-11-23T09:29:31;23.92;;;4.93;;
46757;SDS011;32509;47.750;-3.396;2022-11-23T09:31:57;18.05;;;4.82;;
46757;SDS011;32509;47.750;-3.396;2022-11-23T09:34:23;19.63;;;6.03;;
46757;SDS011;32509;47.750;-3.396;2022-11-23T09:36:49;24.25;;;5.20;;
46757;SDS011;32509;47.750;-3.396;2022-11-23T09:39:14;21.65;;;4.72;;
46757;SDS011;32509;47.750;-3.396;2022-11-23T09:52:21;20.00;;;4.65;;
46757;SDS011;32509;47.750;-3.396;2022-11-23T09:54:50;17.40;;;4.35;;
46757;SDS011;32509;47.750;-3.396;2022-11-23T09:57:21;20.00;;;5.88;;
46757;SDS011;32509;47.750;-3.396;2022-11-23T09:59:58;22.83;;;5.03;;
46757;SDS011;32509;47.750;-3.396;2022-11-23T10:02:32;20.10;;;4.75;;
46757;SDS011;32509;47.750;-3.396;2022-11-23T10:05:03;20.60;;;5.07;;
46757;SDS011;32509;47.750;-3.396;2022-11-23T10:07:38;22.33;;;5.13;;
46757;SDS011;32509;47.750;-3.396;2022-11-23T10:13:03;21.05;;;3.80;;
46757;SDS011;32509;47.750;-3.396;2022-11-23T10:15:39;11.95;;;2.88;;
46757;SDS011;32509;47.750;-3.396;2022-11-23T10:23:51;15.73;;;4.40;;
46757;SDS011;32509;47.750;-3.396;2022-11-23T10:26:33;11.73;;;3.72;;
46757;SDS011;32509;47.750;-3.396;2022-11-23T10:29:08;19.67;;;3.58;;
46757;SDS011;32509;47.750;-3.396;2022-11-23T10:31:47;16.67;;;3.38;;
46757;SDS011;32509;47.750;-3.396;2022-11-23T10:34:15;15.80;;;4.50;;
46757;SDS011;32509;47.750;-3.396;2022-11-23T10:36:45;13.90;;;4.70;;
46757;SDS011;32509;47.750;-3.396;2022-11-23T10:39:22;16.55;;;4.85;;
46757;SDS011;32509;47.750;-3.396;2022-11-23T10:41:49;18.10;;;4.97;;
46757;SDS011;32509;47.750;-3.396;2022-11-23T10:46:54;16.25;;;4.95;;
46757;SDS011;32509;47.750;-3.396;2022-11-23T10:49:20;19.70;;;5.32;;
46757;SDS011;32509;47.750;-3.396;2022-11-23T10:52:04;24.05;;;6.20;;
46757;SDS011;32509;47.750;-3.396;2022-11-23T10:54:51;21.58;;;5.30;;
46757;SDS011;32509;47.750;-3.396;2022-11-23T10:57:32;25.70;;;5.82;;
46757;SDS011;32509;47.750;-3.396;2022-11-23T11:02:44;19.35;;;4.78;;
46757;SDS011;32509;47.750;-3.396;2022-11-23T11:07:53;19.40;;;4.85;;
46757;SDS011;32509;47.750;-3.396;2022-11-23T11:10:37;19.50;;;5.55;;
46757;SDS011;32509;47.750;-3.396;2022-11-23T11:13:24;18.83;;;4.60;;
46757;SDS011;32509;47.750;-3.396;2022-11-23T11:16:27;23.02;;;5.72;;
46757;SDS011;32509;47.750;-3.396;2022-11-23T11:18:57;19.75;;;4.78;;
46757;SDS011;32509;47.750;-3.396;2022-11-23T11:21:33;23.08;;;7.13;;
46757;SDS011;32509;47.750;-3.396;2022-11-23T11:24:05;23.98;;;5.97;;
46757;SDS011;32509;47.750;-3.396;2022-11-23T11:26:46;16.95;;;4.78;;
46757;SDS011;32509;47.750;-3.396;2022-11-23T11:29:31;21.05;;;5.38;;
46757;SDS011;32509;47.750;-3.396;2022-11-23T11:32:29;33.30;;;9.00;;
46757;SDS011;32509;47.750;-3.396;2022-11-23T11:35:02;23.00;;;6.60;;
46757;SDS011;32509;47.750;-3.396;2022-11-23T11:37:44;21.48;;;6.65;;
46757;SDS011;32509;47.750;-3.396;2022-11-23T11:42:57;19.02;;;7.25;;
46757;SDS011;32509;47.750;-3.396;2022-11-23T11:45:25;19.98;;;5.88;;
46757;SDS011;32509;47.750;-3.396;2022-11-23T11:50:37;22.80;;;6.47;;
46757;SDS011;32509;47.750;-3.396;2022-11-23T11:53:35;26.00;;;6.57;;
46757;SDS011;32509;47.750;-3.396;2022-11-23T11:56:13;18.48;;;5.85;;
46757;SDS011;32509;47.750;-3.396;2022-11-23T11:58:57;26.33;;;6.32;;
46757;SDS011;32509;47.750;-3.396;2022-11-23T12:01:35;45.50;;;6.95;;
46757;SDS011;32509;47.750;-3.396;2022-11-23T12:04:08;24.65;;;6.22;;
46757;SDS011;32509;47.750;-3.396;2022-11-23T12:06:52;25.77;;;4.93;;
46757;SDS011;32509;47.750;-3.396;2022-11-23T12:09:25;20.90;;;5.95;;
46757;SDS011;32509;47.750;-3.396;2022-11-23T12:11:56;20.13;;;5.38;;
46757;SDS011;32509;47.750;-3.396;2022-11-23T12:14:22;20.08;;;5.47;;
46757;SDS011;32509;47.750;-3.396;2022-11-23T12:16:51;19.88;;;5.13;;
46757;SDS011;32509;47.750;-3.396;2022-11-23T12:27:50;18.15;;;5.45;;
46757;SDS011;32509;47.750;-3.396;2022-11-23T12:30:28;19.98;;;5.50;;
46757;SDS011;32509;47.750;-3.396;2022-11-23T12:36:08;18.25;;;5.53;;
46757;SDS011;32509;47.750;-3.396;2022-11-23T12:38:49;24.10;;;5.70;;
46757;SDS011;32509;47.750;-3.396;2022-11-23T12:44:50;17.05;;;4.88;;
46757;SDS011;32509;47.750;-3.396;2022-11-23T12:55:52;25.58;;;6.97;;
46757;SDS011;32509;47.750;-3.396;2022-11-23T12:58:29;23.58;;;7.38;;
46757;SDS011;32509;47.750;-3.396;2022-11-23T13:17:19;25.33;;;8.00;;
46757;SDS011;32509;47.750;-3.396;2022-11-23T13:22:21;22.08;;;6.68;;
46757;SDS011;32509;47.750;-3.396;2022-11-23T13:24:59;18.00;;;6.28;;
46757;SDS011;32509;47.750;-3.396;2022-11-23T13:27:53;28.40;;;6.97;;
46757;SDS011;32509;47.750;-3.396;2022-11-23T13:48:55;25.35;;;6.40;;
46757;SDS011;32509;47.750;-3.396;2022-11-23T13:51:29;24.45;;;5.88;;
46757;SDS011;32509;47.750;-3.396;2022-11-23T13:54:03;27.77;;;5.13;;
46757;SDS011;32509;47.750;-3.396;2022-11-23T13:56:31;18.70;;;5.97;;
46757;SDS011;32509;47.750;-3.396;2022-11-23T14:04:37;25.75;;;6.35;;
46757;SDS011;32509;47.750;-3.396;2022-11-23T14:07:10;19.80;;;7.05;;
46757;SDS011;32509;47.750;-3.396;2022-11-23T14:09:56;25.48;;;6.18;;
46757;SDS011;32509;47.750;-3.396;2022-11-23T14:37:26;24.30;;;6.00;;
46757;SDS011;32509;47.750;-3.396;2022-11-23T14:42:40;32.60;;;7.40;;
46757;SDS011;32509;47.750;-3.396;2022-11-23T14:45:11;26.50;;;7.43;;
46757;SDS011;32509;47.750;-3.396;2022-11-23T14:47:39;22.35;;;7.53;;
46757;SDS011;32509;47.750;-3.396;2022-11-23T14:50:05;28.13;;;7.32;;
46757;SDS011;32509;47.750;-3.396;2022-11-23T14:52:44;24.80;;;6.32;;
46757;SDS011;32509;47.750;-3.396;2022-11-23T14:55:16;25.75;;;5.38;;
46757;SDS011;32509;47.750;-3.396;2022-11-23T14:57:45;25.42;;;5.70;;
46757;SDS011;32509;47.750;-3.396;2022-11-23T15:00:32;20.98;;;5.45;;
46757;SDS011;32509;47.750;-3.396;2022-11-23T15:03:06;26.15;;;7.57;;
46757;SDS011;32509;47.750;-3.396;2022-11-23T15:05:39;21.38;;;4.75;;
46757;SDS011;32509;47.750;-3.396;2022-11-23T15:08:12;17.05;;;5.47;;
46757;SDS011;32509;47.750;-3.396;2022-11-23T15:13:52;17.17;;;4.22;;
46757;SDS011;32509;47.750;-3.396;2022-11-23T15:16:28;15.82;;;4.65;;
46757;SDS011;32509;47.750;-3.396;2022-11-23T15:19:15;21.95;;;5.28;;
46757;SDS011;32509;47.750;-3.396;2022-11-23T15:21:50;26.20;;;5.40;;
46757;SDS011;32509;47.750;-3.396;2022-11-23T15:24:23;23.75;;;6.75;;
46757;SDS011;32509;47.750;-3.396;2022-11-23T15:26:51;20.23;;;5.15;;
46757;SDS011;32509;47.750;-3.396;2022-11-23T15:29:27;25.98;;;6.18;;
46757;SDS011;32509;47.750;-3.396;2022-11-23T15:31:58;21.52;;;5.22;;
46757;SDS011;32509;47.750;-3.396;2022-11-23T15:34:24;24.80;;;5.15;;
46757;SDS011;32509;47.750;-3.396;2022-11-23T15:36:50;27.08;;;7.85;;
46757;SDS011;32509;47.750;-3.396;2022-11-23T15:39:18;24.08;;;7.72;;
46757;SDS011;32509;47.750;-3.396;2022-11-23T15:41:47;21.55;;;5.95;;
46757;SDS011;32509;47.750;-3.396;2022-11-23T15:44:19;26.23;;;7.07;;
46757;SDS011;32509;47.750;-3.396;2022-11-23T15:46:49;22.63;;;7.18;;
46757;SDS011;32509;47.750;-3.396;2022-11-23T15:49:17;21.55;;;6.80;;
46757;SDS011;32509;47.750;-3.396;2022-11-23T15:51:44;28.48;;;6.88;;
46757;SDS011;32509;47.750;-3.396;2022-11-23T15:54:14;24.05;;;6.90;;
46757;SDS011;32509;47.750;-3.396;2022-11-23T15:56:46;27.35;;;7.47;;
46757;SDS011;32509;47.750;-3.396;2022-11-23T16:01:42;26.45;;;7.30;;
46757;SDS011;32509;47.750;-3.396;2022-11-23T16:04:27;27.85;;;7.28;;
46757;SDS011;32509;47.750;-3.396;2022-11-23T16:06:56;33.63;;;8.88;;
46757;SDS011;32509;47.750;-3.396;2022-11-23T16:09:36;26.30;;;6.80;;
46757;SDS011;32509;47.750;-3.396;2022-11-23T16:12:04;24.65;;;7.13;;
46757;SDS011;32509;47.750;-3.396;2022-11-23T16:14:45;30.23;;;7.32;;
46757;SDS011;32509;47.750;-3.396;2022-11-23T16:17:20;29.60;;;7.78;;
46757;SDS011;32509;47.750;-3.396;2022-11-23T16:19:48;25.98;;;8.07;;
46757;SDS011;32509;47.750;-3.396;2022-11-23T16:22:20;22.75;;;6.88;;
46757;SDS011;32509;47.750;-3.396;2022-11-23T16:24:46;24.88;;;6.90;;
46757;SDS011;32509;47.750;-3.396;2022-11-23T16:27:19;31.10;;;8.65;;
46757;SDS011;32509;47.750;-3.396;2022-11-23T16:29:48;19.25;;;5.53;;
46757;SDS011;32509;47.750;-3.396;2022-11-23T16:32:25;27.02;;;7.38;;
46757;SDS011;32509;47.750;-3.396;2022-11-23T16:34:53;25.42;;;8.10;;
46757;SDS011;32509;47.750;-3.396;2022-11-23T16:37:22;28.90;;;8.88;;
46757;SDS011;32509;47.750;-3.396;2022-11-23T16:39:49;27.75;;;7.45;;
46757;SDS011;32509;47.750;-3.396;2022-11-23T16:42:15;29.42;;;7.88;;
46757;SDS011;32509;47.750;-3.396;2022-11-23T16:44:42;25.27;;;7.40;;
46757;SDS011;32509;47.750;-3.396;2022-11-23T16:47:17;23.70;;;7.20;;
46757;SDS011;32509;47.750;-3.396;2022-11-23T16:49:46;22.13;;;7.55;;
46757;SDS011;32509;47.750;-3.396;2022-11-23T16:52:12;21.35;;;6.75;;